sensor_id;sensor_type;location;lat;lon;timestamp;pressure;altitude;pressure_sealevel;temperature
19666;BMP180;9980;51.020;7.772;2023-06-19T00:02:09;97060.00;;;24.90
19666;BMP180;9980;51.020;7.772;2023-06-19T00:04:36;97055.00;;;24.90
19666;BMP180;9980;51.020;7.772;2023-06-19T00:07:04;97068.00;;;24.90
19666;BMP180;9980;51.020;7.772;2023-06-19T00:09:32;97047.00;;;24.80
19666;BMP180;9980;51.020;7.772;2023-06-19T00:11:59;97063.00;;;24.80
19666;BMP180;9980;51.020;7.772;2023-06-19T00:14:28;97061.00;;;24.80
19666;BMP180;9980;51.020;7.772;2023-06-19T00:16:54;97070.00;;;24.70
19666;BMP180;9980;51.020;7.772;2023-06-19T00:19:22;97056.00;;;24.70
19666;BMP180;9980;51.020;7.772;2023-06-19T00:21:49;97051.00;;;24.70
19666;BMP180;9980;51.020;7.772;2023-06-19T00:24:16;97053.00;;;24.60
19666;BMP180;9980;51.020;7.772;2023-06-19T00:26:43;97050.00;;;24.60
19666;BMP180;9980;51.020;7.772;2023-06-19T00:29:10;97033.00;;;24.50
19666;BMP180;9980;51.020;7.772;2023-06-19T00:31:37;97043.00;;;24.50
19666;BMP180;9980;51.020;7.772;2023-06-19T00:34:04;97032.00;;;24.40
19666;BMP180;9980;51.020;7.772;2023-06-19T00:36:32;97038.00;;;24.40
19666;BMP180;9980;51.020;7.772;2023-06-19T00:38:59;97043.00;;;24.40
19666;BMP180;9980;51.020;7.772;2023-06-19T00:41:27;97051.00;;;24.30
19666;BMP180;9980;51.020;7.772;2023-06-19T00:43:54;97047.00;;;24.30
19666;BMP180;9980;51.020;7.772;2023-06-19T00:46:23;97052.00;;;24.20
19666;BMP180;9980;51.020;7.772;2023-06-19T00:48:50;97044.00;;;24.10
19666;BMP180;9980;51.020;7.772;2023-06-19T00:51:17;97049.00;;;24.10
19666;BMP180;9980;51.020;7.772;2023-06-19T00:53:45;97050.00;;;24.10
19666;BMP180;9980;51.020;7.772;2023-06-19T00:56:12;97064.00;;;24.00
19666;BMP180;9980;51.020;7.772;2023-06-19T00:58:39;97063.00;;;24.00
19666;BMP180;9980;51.020;7.772;2023-06-19T01:01:06;97070.00;;;23.90
19666;BMP180;9980;51.020;7.772;2023-06-19T01:03:36;97048.00;;;23.90
19666;BMP180;9980;51.020;7.772;2023-06-19T01:06:13;97066.00;;;23.80
19666;BMP180;9980;51.020;7.772;2023-06-19T01:08:58;97060.00;;;23.70
19666;BMP180;9980;51.020;7.772;2023-06-19T01:11:43;97068.00;;;23.70
19666;BMP180;9980;51.020;7.772;2023-06-19T01:14:22;97069.00;;;23.60
19666;BMP180;9980;51.020;7.772;2023-06-19T01:16:52;97053.00;;;23.60
19666;BMP180;9980;51.020;7.772;2023-06-19T01:19:20;97053.00;;;23.60
19666;BMP180;9980;51.020;7.772;2023-06-19T01:21:49;97053.00;;;23.50
19666;BMP180;9980;51.020;7.772;2023-06-19T01:24:17;97057.00;;;23.50
19666;BMP180;9980;51.020;7.772;2023-06-19T01:26:44;97061.00;;;23.40
19666;BMP180;9980;51.020;7.772;2023-06-19T01:29:14;97048.00;;;23.40
19666;BMP180;9980;51.020;7.772;2023-06-19T01:32:02;97050.00;;;23.30
19666;BMP180;9980;51.020;7.772;2023-06-19T01:34:33;97064.00;;;23.30
19666;BMP180;9980;51.020;7.772;2023-06-19T01:37:01;97063.00;;;23.30
19666;BMP180;9980;51.020;7.772;2023-06-19T01:39:29;97057.00;;;23.30
19666;BMP180;9980;51.020;7.772;2023-06-19T01:41:57;97067.00;;;23.20
19666;BMP180;9980;51.020;7.772;2023-06-19T01:44:25;97069.00;;;23.20
19666;BMP180;9980;51.020;7.772;2023-06-19T01:46:52;97080.00;;;23.20
19666;BMP180;9980;51.020;7.772;2023-06-19T01:49:20;97078.00;;;23.20
19666;BMP180;9980;51.020;7.772;2023-06-19T01:51:47;97073.00;;;23.10
19666;BMP180;9980;51.020;7.772;2023-06-19T01:54:14;97076.00;;;23.10
19666;BMP180;9980;51.020;7.772;2023-06-19T01:56:41;97063.00;;;23.10
19666;BMP180;9980;51.020;7.772;2023-06-19T01:59:08;97064.00;;;23.10
19666;BMP180;9980;51.020;7.772;2023-06-19T02:01:35;97063.00;;;23.10
19666;BMP180;9980;51.020;7.772;2023-06-19T02:04:02;97063.00;;;23.10
19666;BMP180;9980;51.020;7.772;2023-06-19T02:06:30;97065.00;;;23.00
19666;BMP180;9980;51.020;7.772;2023-06-19T02:08:57;97060.00;;;23.00
19666;BMP180;9980;51.020;7.772;2023-06-19T02:11:24;97061.00;;;23.00
19666;BMP180;9980;51.020;7.772;2023-06-19T02:13:53;97075.00;;;23.00
19666;BMP180;9980;51.020;7.772;2023-06-19T02:16:20;97072.00;;;23.00
19666;BMP180;9980;51.020;7.772;2023-06-19T02:18:48;97073.00;;;23.00
19666;BMP180;9980;51.020;7.772;2023-06-19T02:21:15;97066.00;;;23.00
19666;BMP180;9980;51.020;7.772;2023-06-19T02:23:42;97074.00;;;23.00
19666;BMP180;9980;51.020;7.772;2023-06-19T02:26:09;97068.00;;;23.00
19666;BMP180;9980;51.020;7.772;2023-06-19T02:28:38;97078.00;;;23.00
19666;BMP180;9980;51.020;7.772;2023-06-19T02:31:05;97092.00;;;23.00
19666;BMP180;9980;51.020;7.772;2023-06-19T02:33:31;97084.00;;;23.00
19666;BMP180;9980;51.020;7.772;2023-06-19T02:35:59;97087.00;;;23.00
19666;BMP180;9980;51.020;7.772;2023-06-19T02:38:26;97087.00;;;23.00
19666;BMP180;9980;51.020;7.772;2023-06-19T02:40:53;97088.00;;;23.00
19666;BMP180;9980;51.020;7.772;2023-06-19T02:43:20;97082.00;;;23.00
19666;BMP180;9980;51.020;7.772;2023-06-19T02:45:48;97096.00;;;23.00
19666;BMP180;9980;51.020;7.772;2023-06-19T02:48:15;97105.00;;;23.00
19666;BMP180;9980;51.020;7.772;2023-06-19T02:50:41;97103.00;;;22.90
19666;BMP180;9980;51.020;7.772;2023-06-19T02:53:08;97103.00;;;22.90
19666;BMP180;9980;51.020;7.772;2023-06-19T02:55:35;97098.00;;;22.90
19666;BMP180;9980;51.020;7.772;2023-06-19T02:58:03;97102.00;;;22.90
19666;BMP180;9980;51.020;7.772;2023-06-19T03:00:30;97115.00;;;22.90
19666;BMP180;9980;51.020;7.772;2023-06-19T03:02:57;97110.00;;;22.90
19666;BMP180;9980;51.020;7.772;2023-06-19T03:05:25;97126.00;;;22.90
19666;BMP180;9980;51.020;7.772;2023-06-19T03:07:55;97119.00;;;22.90
19666;BMP180;9980;51.020;7.772;2023-06-19T03:10:22;97112.00;;;22.90
19666;BMP180;9980;51.020;7.772;2023-06-19T03:12:49;97107.00;;;22.80
19666;BMP180;9980;51.020;7.772;2023-06-19T03:15:16;97112.00;;;22.80
19666;BMP180;9980;51.020;7.772;2023-06-19T03:17:47;97118.00;;;22.80
19666;BMP180;9980;51.020;7.772;2023-06-19T03:20:14;97120.00;;;22.80
19666;BMP180;9980;51.020;7.772;2023-06-19T03:22:49;97110.00;;;22.70
19666;BMP180;9980;51.020;7.772;2023-06-19T03:25:16;97119.00;;;22.70
19666;BMP180;9980;51.020;7.772;2023-06-19T03:27:47;97115.00;;;22.70
19666;BMP180;9980;51.020;7.772;2023-06-19T03:30:14;97114.00;;;22.70
19666;BMP180;9980;51.020;7.772;2023-06-19T03:32:41;97121.00;;;22.70
19666;BMP180;9980;51.020;7.772;2023-06-19T03:35:16;97101.00;;;22.60
19666;BMP180;9980;51.020;7.772;2023-06-19T03:37:43;97124.00;;;22.60
19666;BMP180;9980;51.020;7.772;2023-06-19T03:40:11;97103.00;;;22.60
19666;BMP180;9980;51.020;7.772;2023-06-19T03:42:43;97121.00;;;22.60
19666;BMP180;9980;51.020;7.772;2023-06-19T03:45:12;97128.00;;;22.60
19666;BMP180;9980;51.020;7.772;2023-06-19T03:47:39;97133.00;;;22.60
19666;BMP180;9980;51.020;7.772;2023-06-19T03:50:06;97126.00;;;22.60
19666;BMP180;9980;51.020;7.772;2023-06-19T03:52:47;97129.00;;;22.60
19666;BMP180;9980;51.020;7.772;2023-06-19T03:55:14;97128.00;;;22.60
19666;BMP180;9980;51.020;7.772;2023-06-19T03:57:41;97143.00;;;22.60
19666;BMP180;9980;51.020;7.772;2023-06-19T04:00:09;97127.00;;;22.60
19666;BMP180;9980;51.020;7.772;2023-06-19T04:02:38;97136.00;;;22.70
19666;BMP180;9980;51.020;7.772;2023-06-19T04:05:06;97155.00;;;22.70
19666;BMP180;9980;51.020;7.772;2023-06-19T04:07:34;97147.00;;;22.60
19666;BMP180;9980;51.020;7.772;2023-06-19T04:10:00;97153.00;;;22.70
19666;BMP180;9980;51.020;7.772;2023-06-19T04:12:28;97153.00;;;22.70
19666;BMP180;9980;51.020;7.772;2023-06-19T04:14:54;97154.00;;;22.70
19666;BMP180;9980;51.020;7.772;2023-06-19T04:17:21;97151.00;;;22.70
19666;BMP180;9980;51.020;7.772;2023-06-19T04:19:48;97168.00;;;22.70
19666;BMP180;9980;51.020;7.772;2023-06-19T04:22:15;97159.00;;;22.70
19666;BMP180;9980;51.020;7.772;2023-06-19T04:24:42;97176.00;;;22.80
19666;BMP180;9980;51.020;7.772;2023-06-19T04:27:10;97166.00;;;22.80
19666;BMP180;9980;51.020;7.772;2023-06-19T04:29:37;97162.00;;;22.80
19666;BMP180;9980;51.020;7.772;2023-06-19T04:32:05;97160.00;;;22.90
19666;BMP180;9980;51.020;7.772;2023-06-19T04:34:41;97168.00;;;22.90
19666;BMP180;9980;51.020;7.772;2023-06-19T04:37:12;97171.00;;;22.90
19666;BMP180;9980;51.020;7.772;2023-06-19T04:39:40;97172.00;;;23.00
19666;BMP180;9980;51.020;7.772;2023-06-19T04:42:07;97175.00;;;23.10
19666;BMP180;9980;51.020;7.772;2023-06-19T04:44:33;97183.00;;;23.10
19666;BMP180;9980;51.020;7.772;2023-06-19T04:47:00;97178.00;;;23.20
19666;BMP180;9980;51.020;7.772;2023-06-19T04:49:29;97192.00;;;23.30
19666;BMP180;9980;51.020;7.772;2023-06-19T04:51:57;97187.00;;;23.40
19666;BMP180;9980;51.020;7.772;2023-06-19T04:54:25;97184.00;;;23.40
19666;BMP180;9980;51.020;7.772;2023-06-19T04:56:52;97179.00;;;23.50
19666;BMP180;9980;51.020;7.772;2023-06-19T04:59:21;97188.00;;;23.60
19666;BMP180;9980;51.020;7.772;2023-06-19T05:01:48;97204.00;;;23.70
19666;BMP180;9980;51.020;7.772;2023-06-19T05:04:15;97212.00;;;23.70
19666;BMP180;9980;51.020;7.772;2023-06-19T05:06:42;97196.00;;;23.80
19666;BMP180;9980;51.020;7.772;2023-06-19T05:09:09;97199.00;;;23.80
19666;BMP180;9980;51.020;7.772;2023-06-19T05:11:37;97207.00;;;23.80
19666;BMP180;9980;51.020;7.772;2023-06-19T05:14:04;97214.00;;;23.90
19666;BMP180;9980;51.020;7.772;2023-06-19T05:16:31;97202.00;;;23.90
19666;BMP180;9980;51.020;7.772;2023-06-19T05:19:02;97208.00;;;23.90
19666;BMP180;9980;51.020;7.772;2023-06-19T05:21:29;97206.00;;;24.00
19666;BMP180;9980;51.020;7.772;2023-06-19T05:23:56;97207.00;;;24.10
19666;BMP180;9980;51.020;7.772;2023-06-19T05:26:23;97209.00;;;24.10
19666;BMP180;9980;51.020;7.772;2023-06-19T05:28:50;97217.00;;;24.10
19666;BMP180;9980;51.020;7.772;2023-06-19T05:31:17;97217.00;;;24.20
19666;BMP180;9980;51.020;7.772;2023-06-19T05:33:45;97230.00;;;24.20
19666;BMP180;9980;51.020;7.772;2023-06-19T05:36:12;97233.00;;;24.20
19666;BMP180;9980;51.020;7.772;2023-06-19T05:38:39;97229.00;;;24.20
19666;BMP180;9980;51.020;7.772;2023-06-19T05:41:06;97245.00;;;24.20
19666;BMP180;9980;51.020;7.772;2023-06-19T05:43:33;97249.00;;;24.30
19666;BMP180;9980;51.020;7.772;2023-06-19T05:46:00;97234.00;;;24.30
19666;BMP180;9980;51.020;7.772;2023-06-19T05:48:29;97231.00;;;24.30
19666;BMP180;9980;51.020;7.772;2023-06-19T05:50:56;97235.00;;;24.40
19666;BMP180;9980;51.020;7.772;2023-06-19T05:53:23;97246.00;;;24.40
19666;BMP180;9980;51.020;7.772;2023-06-19T05:55:50;97237.00;;;24.40
19666;BMP180;9980;51.020;7.772;2023-06-19T05:58:17;97241.00;;;24.40
19666;BMP180;9980;51.020;7.772;2023-06-19T06:00:48;97248.00;;;24.40
19666;BMP180;9980;51.020;7.772;2023-06-19T06:03:15;97237.00;;;24.40
19666;BMP180;9980;51.020;7.772;2023-06-19T06:05:42;97234.00;;;24.40
19666;BMP180;9980;51.020;7.772;2023-06-19T06:08:10;97243.00;;;24.40
19666;BMP180;9980;51.020;7.772;2023-06-19T06:10:36;97238.00;;;24.50
19666;BMP180;9980;51.020;7.772;2023-06-19T06:13:04;97246.00;;;24.50
19666;BMP180;9980;51.020;7.772;2023-06-19T06:15:31;97257.00;;;24.50
19666;BMP180;9980;51.020;7.772;2023-06-19T06:17:58;97244.00;;;24.60
19666;BMP180;9980;51.020;7.772;2023-06-19T06:20:26;97256.00;;;24.60
19666;BMP180;9980;51.020;7.772;2023-06-19T06:22:53;97244.00;;;24.70
19666;BMP180;9980;51.020;7.772;2023-06-19T06:25:21;97257.00;;;24.70
19666;BMP180;9980;51.020;7.772;2023-06-19T06:27:48;97264.00;;;24.80
19666;BMP180;9980;51.020;7.772;2023-06-19T06:30:15;97273.00;;;24.90
19666;BMP180;9980;51.020;7.772;2023-06-19T06:32:46;97272.00;;;24.90
19666;BMP180;9980;51.020;7.772;2023-06-19T06:35:13;97274.00;;;25.00
19666;BMP180;9980;51.020;7.772;2023-06-19T06:37:40;97275.00;;;25.00
19666;BMP180;9980;51.020;7.772;2023-06-19T06:40:08;97281.00;;;25.00
19666;BMP180;9980;51.020;7.772;2023-06-19T06:42:37;97271.00;;;25.00
19666;BMP180;9980;51.020;7.772;2023-06-19T06:45:06;97274.00;;;25.10
19666;BMP180;9980;51.020;7.772;2023-06-19T06:47:35;97273.00;;;25.10
19666;BMP180;9980;51.020;7.772;2023-06-19T06:50:02;97269.00;;;25.10
19666;BMP180;9980;51.020;7.772;2023-06-19T06:52:29;97265.00;;;25.20
19666;BMP180;9980;51.020;7.772;2023-06-19T06:54:57;97264.00;;;25.30
19666;BMP180;9980;51.020;7.772;2023-06-19T06:57:24;97257.00;;;25.40
19666;BMP180;9980;51.020;7.772;2023-06-19T06:59:51;97265.00;;;25.40
19666;BMP180;9980;51.020;7.772;2023-06-19T07:02:18;97266.00;;;25.50
19666;BMP180;9980;51.020;7.772;2023-06-19T07:04:46;97280.00;;;25.60
19666;BMP180;9980;51.020;7.772;2023-06-19T07:07:13;97269.00;;;25.70
19666;BMP180;9980;51.020;7.772;2023-06-19T07:09:40;97273.00;;;25.80
19666;BMP180;9980;51.020;7.772;2023-06-19T07:12:07;97269.00;;;25.80
19666;BMP180;9980;51.020;7.772;2023-06-19T07:14:34;97275.00;;;25.90
19666;BMP180;9980;51.020;7.772;2023-06-19T07:17:01;97280.00;;;26.10
19666;BMP180;9980;51.020;7.772;2023-06-19T07:19:28;97283.00;;;26.20
19666;BMP180;9980;51.020;7.772;2023-06-19T07:21:56;97298.00;;;26.20
19666;BMP180;9980;51.020;7.772;2023-06-19T07:24:23;97297.00;;;26.30
19666;BMP180;9980;51.020;7.772;2023-06-19T07:26:50;97316.00;;;26.40
19666;BMP180;9980;51.020;7.772;2023-06-19T07:29:17;97315.00;;;26.40
19666;BMP180;9980;51.020;7.772;2023-06-19T07:31:44;97303.00;;;26.40
19666;BMP180;9980;51.020;7.772;2023-06-19T07:34:11;97315.00;;;26.40
19666;BMP180;9980;51.020;7.772;2023-06-19T07:36:38;97316.00;;;26.40
19666;BMP180;9980;51.020;7.772;2023-06-19T07:39:05;97320.00;;;26.40
19666;BMP180;9980;51.020;7.772;2023-06-19T07:41:32;97314.00;;;26.40
19666;BMP180;9980;51.020;7.772;2023-06-19T07:43:59;97307.00;;;26.40
19666;BMP180;9980;51.020;7.772;2023-06-19T07:46:26;97306.00;;;26.50
19666;BMP180;9980;51.020;7.772;2023-06-19T07:48:53;97310.00;;;26.50
19666;BMP180;9980;51.020;7.772;2023-06-19T07:51:20;97309.00;;;26.50
19666;BMP180;9980;51.020;7.772;2023-06-19T07:53:47;97308.00;;;26.60
19666;BMP180;9980;51.020;7.772;2023-06-19T07:56:14;97310.00;;;26.60
19666;BMP180;9980;51.020;7.772;2023-06-19T07:58:41;97319.00;;;26.60
19666;BMP180;9980;51.020;7.772;2023-06-19T08:01:09;97316.00;;;26.60
19666;BMP180;9980;51.020;7.772;2023-06-19T08:03:37;97323.00;;;26.70
19666;BMP180;9980;51.020;7.772;2023-06-19T08:06:04;97329.00;;;26.70
19666;BMP180;9980;51.020;7.772;2023-06-19T08:08:31;97322.00;;;26.60
19666;BMP180;9980;51.020;7.772;2023-06-19T08:10:58;97320.00;;;26.70
19666;BMP180;9980;51.020;7.772;2023-06-19T08:13:25;97332.00;;;26.70
19666;BMP180;9980;51.020;7.772;2023-06-19T08:15:52;97332.00;;;26.80
19666;BMP180;9980;51.020;7.772;2023-06-19T08:18:19;97331.00;;;26.80
19666;BMP180;9980;51.020;7.772;2023-06-19T08:20:46;97339.00;;;26.80
19666;BMP180;9980;51.020;7.772;2023-06-19T08:23:13;97326.00;;;26.90
19666;BMP180;9980;51.020;7.772;2023-06-19T08:25:40;97340.00;;;26.90
19666;BMP180;9980;51.020;7.772;2023-06-19T08:28:07;97343.00;;;26.90
19666;BMP180;9980;51.020;7.772;2023-06-19T08:30:35;97339.00;;;26.90
19666;BMP180;9980;51.020;7.772;2023-06-19T08:33:02;97336.00;;;27.00
19666;BMP180;9980;51.020;7.772;2023-06-19T08:35:29;97337.00;;;27.00
19666;BMP180;9980;51.020;7.772;2023-06-19T08:37:55;97342.00;;;27.10
19666;BMP180;9980;51.020;7.772;2023-06-19T08:40:22;97333.00;;;27.10
19666;BMP180;9980;51.020;7.772;2023-06-19T08:42:50;97338.00;;;27.30
19666;BMP180;9980;51.020;7.772;2023-06-19T08:45:18;97341.00;;;27.30
19666;BMP180;9980;51.020;7.772;2023-06-19T08:47:48;97335.00;;;27.50
19666;BMP180;9980;51.020;7.772;2023-06-19T08:50:19;97347.00;;;27.50
19666;BMP180;9980;51.020;7.772;2023-06-19T08:52:46;97343.00;;;27.60
19666;BMP180;9980;51.020;7.772;2023-06-19T08:55:13;97336.00;;;27.70
19666;BMP180;9980;51.020;7.772;2023-06-19T08:57:41;97343.00;;;27.70
19666;BMP180;9980;51.020;7.772;2023-06-19T09:00:09;97339.00;;;27.80
19666;BMP180;9980;51.020;7.772;2023-06-19T09:02:42;97327.00;;;27.80
19666;BMP180;9980;51.020;7.772;2023-06-19T09:05:15;97328.00;;;27.90
19666;BMP180;9980;51.020;7.772;2023-06-19T09:07:53;97337.00;;;28.00
19666;BMP180;9980;51.020;7.772;2023-06-19T09:10:20;97324.00;;;28.10
19666;BMP180;9980;51.020;7.772;2023-06-19T09:13:03;97327.00;;;28.10
19666;BMP180;9980;51.020;7.772;2023-06-19T09:15:37;97318.00;;;28.30
19666;BMP180;9980;51.020;7.772;2023-06-19T09:18:11;97329.00;;;28.40
19666;BMP180;9980;51.020;7.772;2023-06-19T09:20:42;97333.00;;;28.60
19666;BMP180;9980;51.020;7.772;2023-06-19T09:23:12;97342.00;;;28.80
19666;BMP180;9980;51.020;7.772;2023-06-19T09:25:49;97345.00;;;28.90
19666;BMP180;9980;51.020;7.772;2023-06-19T09:28:18;97346.00;;;29.10
19666;BMP180;9980;51.020;7.772;2023-06-19T09:31:00;97338.00;;;29.20
19666;BMP180;9980;51.020;7.772;2023-06-19T09:33:30;97342.00;;;29.30
19666;BMP180;9980;51.020;7.772;2023-06-19T09:35:59;97340.00;;;29.40
19666;BMP180;9980;51.020;7.772;2023-06-19T09:38:29;97336.00;;;29.50
19666;BMP180;9980;51.020;7.772;2023-06-19T09:40:58;97336.00;;;29.60
19666;BMP180;9980;51.020;7.772;2023-06-19T09:43:43;97343.00;;;29.60
19666;BMP180;9980;51.020;7.772;2023-06-19T09:46:15;97345.00;;;29.80
19666;BMP180;9980;51.020;7.772;2023-06-19T09:48:45;97346.00;;;29.90
19666;BMP180;9980;51.020;7.772;2023-06-19T09:51:31;97342.00;;;29.90
19666;BMP180;9980;51.020;7.772;2023-06-19T09:54:00;97344.00;;;30.00
19666;BMP180;9980;51.020;7.772;2023-06-19T09:56:29;97352.00;;;30.00
19666;BMP180;9980;51.020;7.772;2023-06-19T09:58:59;97339.00;;;30.00
19666;BMP180;9980;51.020;7.772;2023-06-19T10:01:31;97354.00;;;30.00
19666;BMP180;9980;51.020;7.772;2023-06-19T10:04:08;97339.00;;;30.00
19666;BMP180;9980;51.020;7.772;2023-06-19T10:06:45;97349.00;;;30.00
19666;BMP180;9980;51.020;7.772;2023-06-19T10:09:15;97351.00;;;30.00
19666;BMP180;9980;51.020;7.772;2023-06-19T10:11:51;97348.00;;;30.00
19666;BMP180;9980;51.020;7.772;2023-06-19T10:14:22;97351.00;;;30.00
19666;BMP180;9980;51.020;7.772;2023-06-19T10:16:50;97356.00;;;30.00
19666;BMP180;9980;51.020;7.772;2023-06-19T10:19:21;97359.00;;;30.00
19666;BMP180;9980;51.020;7.772;2023-06-19T10:21:52;97350.00;;;30.00
19666;BMP180;9980;51.020;7.772;2023-06-19T10:24:20;97354.00;;;30.00
19666;BMP180;9980;51.020;7.772;2023-06-19T10:27:00;97347.00;;;30.00
19666;BMP180;9980;51.020;7.772;2023-06-19T10:29:52;97353.00;;;30.00
19666;BMP180;9980;51.020;7.772;2023-06-19T10:32:39;97365.00;;;30.10
19666;BMP180;9980;51.020;7.772;2023-06-19T10:35:12;97357.00;;;30.10
19666;BMP180;9980;51.020;7.772;2023-06-19T10:37:40;97361.00;;;30.20
19666;BMP180;9980;51.020;7.772;2023-06-19T10:40:08;97376.00;;;30.30
19666;BMP180;9980;51.020;7.772;2023-06-19T10:42:40;97360.00;;;30.40
19666;BMP180;9980;51.020;7.772;2023-06-19T10:45:12;97368.00;;;30.40
19666;BMP180;9980;51.020;7.772;2023-06-19T10:47:40;97362.00;;;30.60
19666;BMP180;9980;51.020;7.772;2023-06-19T10:50:14;97351.00;;;30.70
19666;BMP180;9980;51.020;7.772;2023-06-19T10:52:44;97360.00;;;30.80
19666;BMP180;9980;51.020;7.772;2023-06-19T10:55:12;97368.00;;;30.90
19666;BMP180;9980;51.020;7.772;2023-06-19T10:57:46;97346.00;;;31.00
19666;BMP180;9980;51.020;7.772;2023-06-19T11:00:29;97337.00;;;31.10
19666;BMP180;9980;51.020;7.772;2023-06-19T11:02:57;97345.00;;;31.30
19666;BMP180;9980;51.020;7.772;2023-06-19T11:05:27;97335.00;;;31.40
19666;BMP180;9980;51.020;7.772;2023-06-19T11:07:58;97340.00;;;31.50
19666;BMP180;9980;51.020;7.772;2023-06-19T11:10:30;97348.00;;;31.60
19666;BMP180;9980;51.020;7.772;2023-06-19T11:12:58;97343.00;;;31.80
19666;BMP180;9980;51.020;7.772;2023-06-19T11:15:33;97343.00;;;31.80
19666;BMP180;9980;51.020;7.772;2023-06-19T11:18:02;97340.00;;;32.00
19666;BMP180;9980;51.020;7.772;2023-06-19T11:20:29;97332.00;;;32.10
19666;BMP180;9980;51.020;7.772;2023-06-19T11:23:01;97338.00;;;32.20
19666;BMP180;9980;51.020;7.772;2023-06-19T11:25:38;97337.00;;;32.40
19666;BMP180;9980;51.020;7.772;2023-06-19T11:28:13;97341.00;;;32.50
19666;BMP180;9980;51.020;7.772;2023-06-19T11:30:41;97342.00;;;32.60
19666;BMP180;9980;51.020;7.772;2023-06-19T11:33:18;97338.00;;;32.70
19666;BMP180;9980;51.020;7.772;2023-06-19T11:35:54;97335.00;;;32.80
19666;BMP180;9980;51.020;7.772;2023-06-19T11:38:26;97339.00;;;33.00
19666;BMP180;9980;51.020;7.772;2023-06-19T11:40:57;97330.00;;;33.00
19666;BMP180;9980;51.020;7.772;2023-06-19T11:43:31;97331.00;;;33.00
19666;BMP180;9980;51.020;7.772;2023-06-19T11:46:07;97332.00;;;33.10
19666;BMP180;9980;51.020;7.772;2023-06-19T11:48:38;97316.00;;;33.20
19666;BMP180;9980;51.020;7.772;2023-06-19T11:51:05;97334.00;;;33.20
19666;BMP180;9980;51.020;7.772;2023-06-19T11:53:34;97335.00;;;33.20
19666;BMP180;9980;51.020;7.772;2023-06-19T11:56:01;97333.00;;;33.30
19666;BMP180;9980;51.020;7.772;2023-06-19T11:58:28;97325.00;;;33.30
19666;BMP180;9980;51.020;7.772;2023-06-19T12:00:55;97325.00;;;33.30
19666;BMP180;9980;51.020;7.772;2023-06-19T12:03:23;97327.00;;;33.30
19666;BMP180;9980;51.020;7.772;2023-06-19T12:05:50;97330.00;;;33.20
19666;BMP180;9980;51.020;7.772;2023-06-19T12:08:17;97325.00;;;33.20
19666;BMP180;9980;51.020;7.772;2023-06-19T12:10:44;97331.00;;;33.10
19666;BMP180;9980;51.020;7.772;2023-06-19T12:13:11;97348.00;;;33.00
19666;BMP180;9980;51.020;7.772;2023-06-19T12:15:38;97340.00;;;33.00
19666;BMP180;9980;51.020;7.772;2023-06-19T12:18:05;97336.00;;;32.90
19666;BMP180;9980;51.020;7.772;2023-06-19T12:20:34;97332.00;;;33.00
19666;BMP180;9980;51.020;7.772;2023-06-19T12:23:00;97329.00;;;33.00
19666;BMP180;9980;51.020;7.772;2023-06-19T12:25:27;97344.00;;;33.00
19666;BMP180;9980;51.020;7.772;2023-06-19T12:27:54;97343.00;;;33.00
19666;BMP180;9980;51.020;7.772;2023-06-19T12:30:22;97338.00;;;33.10
19666;BMP180;9980;51.020;7.772;2023-06-19T12:32:49;97337.00;;;33.20
19666;BMP180;9980;51.020;7.772;2023-06-19T12:35:17;97341.00;;;33.20
19666;BMP180;9980;51.020;7.772;2023-06-19T12:37:45;97350.00;;;33.20
19666;BMP180;9980;51.020;7.772;2023-06-19T12:40:12;97343.00;;;33.20
19666;BMP180;9980;51.020;7.772;2023-06-19T12:42:39;97331.00;;;33.20
19666;BMP180;9980;51.020;7.772;2023-06-19T12:45:06;97336.00;;;33.20
19666;BMP180;9980;51.020;7.772;2023-06-19T12:47:33;97333.00;;;33.20
19666;BMP180;9980;51.020;7.772;2023-06-19T12:50:00;97331.00;;;33.30
19666;BMP180;9980;51.020;7.772;2023-06-19T12:52:27;97344.00;;;33.30
19666;BMP180;9980;51.020;7.772;2023-06-19T12:54:54;97341.00;;;33.30
19666;BMP180;9980;51.020;7.772;2023-06-19T12:57:21;97325.00;;;33.30
19666;BMP180;9980;51.020;7.772;2023-06-19T12:59:48;97323.00;;;33.30
19666;BMP180;9980;51.020;7.772;2023-06-19T13:02:15;97322.00;;;33.30
19666;BMP180;9980;51.020;7.772;2023-06-19T13:04:42;97314.00;;;33.30
19666;BMP180;9980;51.020;7.772;2023-06-19T13:07:09;97317.00;;;33.30
19666;BMP180;9980;51.020;7.772;2023-06-19T13:09:36;97311.00;;;33.30
19666;BMP180;9980;51.020;7.772;2023-06-19T13:12:03;97319.00;;;33.30
19666;BMP180;9980;51.020;7.772;2023-06-19T13:14:30;97330.00;;;33.40
19666;BMP180;9980;51.020;7.772;2023-06-19T13:16:58;97326.00;;;33.40
19666;BMP180;9980;51.020;7.772;2023-06-19T13:19:26;97323.00;;;33.50
19666;BMP180;9980;51.020;7.772;2023-06-19T13:21:53;97309.00;;;33.50
19666;BMP180;9980;51.020;7.772;2023-06-19T13:24:20;97316.00;;;33.60
19666;BMP180;9980;51.020;7.772;2023-06-19T13:26:48;97312.00;;;33.60
19666;BMP180;9980;51.020;7.772;2023-06-19T13:29:15;97321.00;;;33.60
19666;BMP180;9980;51.020;7.772;2023-06-19T13:31:42;97319.00;;;33.70
19666;BMP180;9980;51.020;7.772;2023-06-19T13:34:09;97325.00;;;33.70
19666;BMP180;9980;51.020;7.772;2023-06-19T13:36:36;97324.00;;;33.70
19666;BMP180;9980;51.020;7.772;2023-06-19T13:39:03;97311.00;;;33.70
19666;BMP180;9980;51.020;7.772;2023-06-19T13:41:31;97310.00;;;33.80
19666;BMP180;9980;51.020;7.772;2023-06-19T13:44:00;97314.00;;;33.80
19666;BMP180;9980;51.020;7.772;2023-06-19T13:46:27;97314.00;;;33.90
19666;BMP180;9980;51.020;7.772;2023-06-19T13:48:54;97316.00;;;33.90
19666;BMP180;9980;51.020;7.772;2023-06-19T13:51:22;97310.00;;;33.90
19666;BMP180;9980;51.020;7.772;2023-06-19T13:53:51;97313.00;;;34.00
19666;BMP180;9980;51.020;7.772;2023-06-19T13:56:18;97301.00;;;34.00
19666;BMP180;9980;51.020;7.772;2023-06-19T13:58:46;97297.00;;;33.90
19666;BMP180;9980;51.020;7.772;2023-06-19T14:01:13;97309.00;;;33.90
19666;BMP180;9980;51.020;7.772;2023-06-19T14:03:40;97299.00;;;33.90
19666;BMP180;9980;51.020;7.772;2023-06-19T14:06:07;97296.00;;;33.80
19666;BMP180;9980;51.020;7.772;2023-06-19T14:08:35;97292.00;;;33.80
19666;BMP180;9980;51.020;7.772;2023-06-19T14:11:02;97300.00;;;33.80
19666;BMP180;9980;51.020;7.772;2023-06-19T14:13:29;97299.00;;;33.80
19666;BMP180;9980;51.020;7.772;2023-06-19T14:15:56;97300.00;;;33.80
19666;BMP180;9980;51.020;7.772;2023-06-19T14:18:23;97290.00;;;33.90
19666;BMP180;9980;51.020;7.772;2023-06-19T14:20:50;97302.00;;;34.00
19666;BMP180;9980;51.020;7.772;2023-06-19T14:23:17;97299.00;;;34.00
19666;BMP180;9980;51.020;7.772;2023-06-19T14:25:44;97307.00;;;34.10
19666;BMP180;9980;51.020;7.772;2023-06-19T14:28:11;97286.00;;;34.10
19666;BMP180;9980;51.020;7.772;2023-06-19T14:30:38;97290.00;;;34.10